Weather reports worldwide

Advertisment
Toulon Arsenal, France (7660): temperature & dewpoint: 20.05.2019 02:00:00 - 26.05.2019 02:00:00 (CEST)Toulon Arsenal, France (7660): wind speed & gusts: 20.05.2019 02:00:00 - 26.05.2019 02:00:00 (CEST)Toulon Arsenal, France (7660): wind direction: 20.05.2019 02:00:00 - 26.05.2019 02:00:00 (CEST)Toulon Arsenal, France (7660): precipitation: 20.05.2019 02:00:00 - 26.05.2019 02:00:00 (CEST)
Date & Time tt [°C] td [°C] ff [km/h] ff [kn] fx [km/h] fx [kn] dd rr [mm]
26.05.2019 02:00:00 - - - - - - - -
26.05.2019 01:00:00 15,5 14,0 4 2 8 4 N 0,0
26.05.2019 00:00:00 16,0 14,2 2 1 8 4 NNW 0,0
25.05.2019 23:00:00 17,2 14,7 4 2 15 8 W 0,0
25.05.2019 22:00:00 17,8 15,2 5 3 18 10 W 0,2
25.05.2019 21:00:00 18,0 15,1 8 4 15 8 W 0,4
25.05.2019 20:00:00 18,6 14,9 4 2 22 12 SSW -
25.05.2019 19:00:00 19,5 14,1 9 5 18 10 W 0,0
25.05.2019 18:00:00 20,6 14,7 4 2 13 7 S 0,0
25.05.2019 17:00:00 19,0 14,7 4 2 21 11 S 0,0
25.05.2019 16:00:00 19,5 14,5 8 4 22 12 SSE 0,0
25.05.2019 15:00:00 19,9 14,3 5 3 15 8 S 0,0
25.05.2019 14:00:00 20,0 14,4 8 4 16 9 SSE -
25.05.2019 13:00:00 20,0 13,7 9 5 18 10 SE 0,0
25.05.2019 12:00:00 19,0 13,0 11 6 22 12 SE 0,0
25.05.2019 11:00:00 18,7 13,8 11 6 18 10 SE 0,0
25.05.2019 10:00:00 18,9 13,5 11 6 18 10 SE 0,0
25.05.2019 09:00:00 17,6 14,1 9 5 16 9 SE 0,0
25.05.2019 08:00:00 17,1 14,2 4 2 9 5 SE -
25.05.2019 07:00:00 16,2 13,7 2 1 9 5 NE 0,0
25.05.2019 06:00:00 15,8 13,6 2 1 9 5 ENE 0,0
25.05.2019 05:00:00 16,2 13,7 4 2 9 5 N 0,0
25.05.2019 04:00:00 16,4 14,2 4 2 11 6 N 0,0
25.05.2019 03:00:00 16,5 15,0 0 0 4 2 N 0,0
25.05.2019 02:00:00 16,8 15,1 2 1 5 3 SSE -
25.05.2019 01:00:00 16,6 15,0 0 0 4 2 N 0,0
25.05.2019 00:00:00 17,2 15,0 2 1 8 4 S 0,0
24.05.2019 23:00:00 16,7 14,5 0 0 4 2 N 0,0
24.05.2019 22:00:00 17,4 15,0 2 1 9 5 SSE 0,0
24.05.2019 21:00:00 17,7 14,6 4 2 11 6 E 0,0
24.05.2019 20:00:00 18,6 14,9 8 4 13 7 SSE -
24.05.2019 19:00:00 19,5 14,9 8 4 18 10 SE 0,0
24.05.2019 18:00:00 19,2 14,9 9 5 26 14 SE 0,0
24.05.2019 17:00:00 19,1 14,6 16 9 29 16 SE 0,0
24.05.2019 16:00:00 19,4 14,4 18 10 34 18 SE 0,0
24.05.2019 15:00:00 19,1 14,8 24 13 31 17 SE 0,0
24.05.2019 14:00:00 19,3 14,8 18 10 31 17 SE -
24.05.2019 13:00:00 19,6 15,0 22 12 35 19 SE 0,0
24.05.2019 12:00:00 19,3 14,5 22 12 34 18 SE 0,0
24.05.2019 11:00:00 18,8 14,3 18 10 28 15 SE 0,0
24.05.2019 10:00:00 18,7 13,8 13 7 24 13 ESE 0,0
24.05.2019 09:00:00 17,3 13,6 15 8 28 15 E 0,0
24.05.2019 08:00:00 15,5 13,7 11 6 21 11 E -
24.05.2019 07:00:00 13,6 11,6 2 1 9 5 ENE 0,0
24.05.2019 06:00:00 12,8 11,5 4 2 8 4 NE 0,0
24.05.2019 05:00:00 13,2 11,9 0 0 5 3 N 0,0
24.05.2019 04:00:00 13,7 12,1 4 2 8 4 NE 0,0
24.05.2019 03:00:00 13,2 11,4 2 1 8 4 NE 0,0
24.05.2019 02:00:00 13,9 12,5 4 2 5 3 NW -
24.05.2019 01:00:00 14,3 12,8 2 1 5 3 N 0,0
24.05.2019 00:00:00 14,8 13,2 0 0 4 2 N 0,0
23.05.2019 23:00:00 15,9 13,7 0 0 5 3 N 0,0
23.05.2019 22:00:00 17,0 13,5 4 2 9 5 WNW 0,0
23.05.2019 21:00:00 18,2 13,7 5 3 13 7 W 0,0
23.05.2019 20:00:00 19,9 12,9 9 5 16 9 W -
23.05.2019 19:00:00 19,9 14,3 5 3 18 10 SSE 0,0
23.05.2019 18:00:00 20,6 13,1 8 4 16 9 SSE 0,0
23.05.2019 17:00:00 20,3 13,5 9 5 18 10 SE 0,0
23.05.2019 16:00:00 20,9 14,5 9 5 21 11 SSE 0,0
23.05.2019 15:00:00 20,6 14,3 11 6 21 11 SE 0,0
23.05.2019 14:00:00 20,9 13,8 13 7 18 10 SSE -
23.05.2019 13:00:00 20,3 14,0 13 7 21 11 SSE 0,0
23.05.2019 12:00:00 20,0 14,4 13 7 28 15 SE 0,0
23.05.2019 11:00:00 18,9 13,5 18 10 28 15 SE 0,0
23.05.2019 10:00:00 19,1 13,5 13 7 22 12 SSE 0,0
23.05.2019 09:00:00 18,4 13,0 9 5 18 10 SE 0,0
23.05.2019 08:00:00 15,5 12,6 0 0 4 2 N -
23.05.2019 07:00:00 12,0 11,1 0 0 5 3 N 0,0
23.05.2019 06:00:00 11,4 10,1 2 1 4 2 N 0,0
23.05.2019 05:00:00 11,8 10,4 0 0 5 3 N 0,0
23.05.2019 04:00:00 12,4 11,0 2 1 4 2 NW 0,0
23.05.2019 03:00:00 12,7 10,8 2 1 4 2 NNE 0,0
23.05.2019 02:00:00 13,2 11,1 2 1 8 4 N -
23.05.2019 01:00:00 14,9 12,2 4 2 11 6 NE 0,0
23.05.2019 00:00:00 16,1 13,6 5 3 9 5 E 0,0
22.05.2019 23:00:00 16,2 12,2 2 1 13 7 SW 0,0
22.05.2019 22:00:00 17,2 13,3 5 3 15 8 W 0,0
22.05.2019 21:00:00 18,4 11,7 9 5 16 9 W 0,0
22.05.2019 20:00:00 20,1 10,8 8 4 15 8 W -
22.05.2019 19:00:00 21,1 10,0 8 4 18 10 SW 0,0
22.05.2019 18:00:00 20,6 10,1 11 6 26 14 WSW 0,0
22.05.2019 17:00:00 21,4 10,5 13 7 24 13 W 0,0
22.05.2019 16:00:00 21,2 11,8 9 5 29 16 S 0,0
22.05.2019 15:00:00 20,9 13,1 8 4 21 11 S 0,0
22.05.2019 14:00:00 20,2 12,4 8 4 18 10 S -
22.05.2019 13:00:00 20,0 11,5 9 5 22 12 SSE 0,0
22.05.2019 12:00:00 20,4 11,9 9 5 18 10 SE 0,0
22.05.2019 11:00:00 19,7 11,2 8 4 13 7 SSE 0,0
22.05.2019 10:00:00 18,5 11,8 8 4 13 7 ESE 0,0
22.05.2019 09:00:00 17,0 11,0 2 1 8 4 W 0,0
22.05.2019 08:00:00 13,7 10,7 0 0 5 3 N -
22.05.2019 07:00:00 12,4 10,5 2 1 5 3 NW 0,0
22.05.2019 06:00:00 12,7 10,6 2 1 8 4 NW 0,0
22.05.2019 05:00:00 12,5 10,9 4 2 8 4 N 0,0
22.05.2019 04:00:00 13,4 11,6 4 2 8 4 W 0,0
22.05.2019 03:00:00 14,2 11,9 0 0 9 5 N 0,0
22.05.2019 02:00:00 14,6 11,0 2 1 13 7 NNE -
22.05.2019 01:00:00 16,7 12,4 8 4 18 10 ESE 0,0
22.05.2019 00:00:00 17,2 12,3 11 6 22 12 E 0,0
21.05.2019 23:00:00 17,6 12,5 9 5 24 13 E 0,0
21.05.2019 22:00:00 17,9 12,1 5 3 22 12 SE 0,0
21.05.2019 21:00:00 18,1 12,3 15 8 44 24 W 0,0
21.05.2019 20:00:00 19,0 12,3 22 12 48 26 W -
21.05.2019 19:00:00 19,5 12,5 29 16 57 31 W 0,0
21.05.2019 18:00:00 20,1 12,1 26 14 55 30 W 0,0
21.05.2019 17:00:00 20,3 11,5 34 18 63 34 W 0,0
21.05.2019 16:00:00 20,9 11,2 31 17 61 33 W 0,0
21.05.2019 15:00:00 21,1 11,4 29 16 57 31 W 0,0
21.05.2019 14:00:00 20,9 11,2 28 15 52 28 W -
21.05.2019 13:00:00 20,8 11,4 26 14 50 27 W 0,0
21.05.2019 12:00:00 19,7 11,5 28 15 55 30 W 0,0
21.05.2019 11:00:00 19,4 11,2 26 14 48 26 WSW 0,0
21.05.2019 10:00:00 18,1 11,2 24 13 42 23 WSW 0,0
21.05.2019 09:00:00 17,6 10,7 16 9 35 19 W 0,0
21.05.2019 08:00:00 16,5 10,6 13 7 31 17 W -
21.05.2019 07:00:00 15,2 10,2 15 8 28 15 W 0,0
21.05.2019 06:00:00 14,9 9,9 8 4 21 11 W 0,0
21.05.2019 05:00:00 15,1 9,7 9 5 22 12 WNW 0,0
21.05.2019 04:00:00 15,5 9,4 5 3 24 13 W 0,0
21.05.2019 03:00:00 16,2 9,1 9 5 26 14 W 0,0
21.05.2019 02:00:00 16,7 8,9 15 8 26 14 W -
21.05.2019 01:00:00 17,0 8,4 8 4 24 13 W 0,0
21.05.2019 00:00:00 17,7 7,7 9 5 29 16 WNW 0,0
20.05.2019 23:00:00 18,4 8,4 13 7 24 13 W 0,0
20.05.2019 22:00:00 17,7 10,8 11 6 34 18 W 0,0
20.05.2019 21:00:00 17,6 11,8 21 11 42 23 W 0,0
20.05.2019 20:00:00 18,8 11,4 22 12 44 24 W -
20.05.2019 19:00:00 19,6 11,1 24 13 48 26 W 0,0
20.05.2019 18:00:00 20,3 11,0 26 14 61 33 W 0,0
20.05.2019 17:00:00 19,7 10,9 29 16 59 32 W 0,0
20.05.2019 16:00:00 20,8 11,4 24 13 48 26 W 0,0
20.05.2019 15:00:00 18,8 11,8 22 12 52 28 W 0,0
20.05.2019 14:00:00 19,3 11,6 18 10 44 24 W -
20.05.2019 13:00:00 18,9 11,9 18 10 37 20 W 0,0
20.05.2019 12:00:00 20,9 9,8 15 8 41 22 WNW 0,0
20.05.2019 11:00:00 20,0 10,4 22 12 41 22 W 0,0
20.05.2019 10:00:00 19,0 10,5 16 9 35 19 W 0,0
20.05.2019 09:00:00 16,7 11,4 9 5 22 12 W 0,0
20.05.2019 08:00:00 14,3 11,4 2 1 16 9 NW -
20.05.2019 07:00:00 13,5 11,0 11 6 21 11 WNW 0,0
20.05.2019 06:00:00 12,9 10,8 5 3 16 9 WNW 0,0
20.05.2019 05:00:00 13,4 10,9 11 6 22 12 WNW 0,0
20.05.2019 04:00:00 13,4 11,1 9 5 24 13 W 0,0
20.05.2019 03:00:00 13,9 11,4 16 9 28 15 WNW 0,0
20.05.2019 02:00:00 13,9 11,6 15 8 22 12 WNW -

tt = temperature
td = dewpoint
ff = wind speed
fx = gusts
dd = wind direction
rr = precipitation

Next stations